Terminal Aerodrome Forecast
Issued by NWS Charleston, WV

Current Version | Previous Version | Text Only | Print | Product List | Glossary Off
Versions: 1 2 3 4 5 6 7 8 9 10 11 12 13 14 15 16 17 18 19 20 21

000
FTUS41 KRLX 261000 AAA
TAFEKN
TAF AMD
KEKN 261032Z 2611/2706 VRB03KT 2SM -RA BR SCT025 OVC035
     FM261200 VRB03KT 4SM -RA BR SCT025 OVC035
     FM261600 12004KT P6SM -RA OVC025
     FM261800 12004KT 4SM -SN OVC018
     FM262100 00000KT 3SM -SN BR OVC012
     FM262300 30004KT 1SM -SN BR OVC010=

USA.gov is the U.S. government's official web portal to all federal, state and local government web resources and services.